Herzlich willkommen!

Am freundlichen Bodensee-Flugplatz zwischen Schwarzwald, Rhein und Alpen.

Aktuelles

Es liegen keine aktuellen Meldungen vor. Wir freuen uns auf Ihren Besuch!

Live am Platz

Die Bilder unserer Webcams werden alle 5 Minuten aktualisiert.

Sonnenaufgang:

03:24 UTC / 05:24 Lokal

Sonnenuntergang:

19:27 UTC / 21:27 Lokal

METAR (24.06.2018 09:50 UTC):

EDNY 240950Z 04005KT CAVOK 18/10 Q1021
VFR

TAF (24.06.2018 05:00 UTC):

TAF EDNY 240500Z 2406/2506 03006KT 9999 SCT050

Alle Angaben unverbindlich und ohne Gewähr. Zeiten genähert.

Für den Verkehrslandeplatz Konstanz werden keine offiziellen Wetterinformationen herausgegeben. Daher werden zur Orientierung Daten des nahegelegenen Flughafens Friedrichshafen dargestellt.